Time;durP1;ratioP1;P1;durP2;ratioP2;P2;SDS_P1;SDS_P2;PMS_P1;PMS_P2;Temp;Humidity;BMP_temperature;BMP_pressure;BME280_temperature;BME280_humidity;BME280_pressure;Samples;Min_cycle;Max_cycle;Signal;HPM_P1;HPM_P2
2023/12/04 00:00:42;;;;;;;11.67;10.47;;;;;;;0.96;74.58;101427.31;5009823;28;20207;-77
2023/12/04 00:03:08;;;;;;;11.83;10.63;;;;;;;0.98;74.88;101420.53;5013998;28;20922;-77
2023/12/04 00:05:34;;;;;;;12.80;11.23;;;;;;;1.07;73.82;101414.81;5016388;28;20211;-76
2023/12/04 00:08:01;;;;;;;11.40;10.30;;;;;;;1.06;73.77;101424.25;5015235;28;20219;-76
2023/12/04 00:10:27;;;;;;;12.20;10.90;;;;;;;1.08;73.33;101424.31;5010231;28;20265;-76
2023/12/04 00:12:53;;;;;;;11.00;9.93;;;;;;;1.05;73.37;101427.66;5015920;28;20207;-76
2023/12/04 00:15:20;;;;;;;11.27;10.03;;;;;;;0.92;74.02;101426.31;5012046;28;20737;-77
2023/12/04 00:17:48;;;;;;;10.73;9.70;;;;;;;0.79;74.69;101421.53;5013936;28;20222;-77
2023/12/04 00:20:14;;;;;;;11.17;9.40;;;;;;;0.78;74.28;101404.38;5012655;28;20689;-76
2023/12/04 00:22:40;;;;;;;11.00;9.80;;;;;;;0.78;75.10;101386.41;5013869;28;20230;-77
2023/12/04 00:25:07;;;;;;;11.07;9.97;;;;;;;0.84;75.83;101347.19;5015142;28;20198;-77
2023/12/04 00:27:34;;;;;;;10.37;9.37;;;;;;;0.90;75.80;101334.56;5016567;28;20261;-77
2023/12/04 00:30:00;;;;;;;11.43;10.33;;;;;;;0.96;75.43;101321.91;5016765;28;20260;-76
2023/12/04 00:32:26;;;;;;;11.90;9.47;;;;;;;0.94;76.83;101308.13;5012290;28;20719;-77
2023/12/04 00:34:54;;;;;;;10.97;9.77;;;;;;;0.71;75.91;101313.34;5013112;28;20614;-77
2023/12/04 00:37:20;;;;;;;10.73;9.73;;;;;;;0.82;75.75;101303.44;5015308;28;20234;-78
2023/12/04 00:39:47;;;;;;;10.83;9.67;;;;;;;0.84;76.39;101295.78;5013155;28;20594;-77
2023/12/04 00:42:13;;;;;;;11.40;9.63;;;;;;;0.91;77.11;101275.50;5011926;28;20674;-77
2023/12/04 00:44:43;;;;;;;10.30;9.30;;;;;;;0.96;76.94;101255.09;5013583;28;20662;-76
2023/12/04 00:47:09;;;;;;;10.50;9.50;;;;;;;0.93;75.97;101268.72;5011908;28;20230;-77
2023/12/04 00:49:37;;;;;;;10.57;9.47;;;;;;;0.98;75.65;101272.28;5013079;28;20260;-77
2023/12/04 00:52:05;;;;;;;11.17;10.03;;;;;;;0.94;76.32;101269.59;5011691;28;20673;-77
2023/12/04 00:54:35;;;;;;;12.10;10.80;;;;;;;0.87;75.79;101271.06;4665956;28;9999598;-77
2023/12/04 00:57:01;;;;;;;10.77;9.67;;;;;;;0.86;75.65;101255.59;5015407;28;20234;-77
2023/12/04 00:59:27;;;;;;;11.77;10.57;;;;;;;0.89;75.91;101247.97;5020670;28;20210;-77
2023/12/04 01:01:56;;;;;;;13.10;10.90;;;;;;;0.85;76.19;101247.00;5005580;28;20218;-77
2023/12/04 01:04:23;;;;;;;10.87;9.77;;;;;;;0.97;75.34;101252.56;5031778;28;20833;-77
2023/12/04 01:06:52;;;;;;;13.80;10.50;;;;;;;0.99;75.13;101244.88;5031529;28;20218;-77
2023/12/04 01:09:24;;;;;;;12.17;10.97;;;;;;;0.85;75.94;101249.56;5033808;28;20214;-77
2023/12/04 01:11:50;;;;;;;11.40;10.17;;;;;;;0.43;75.30;101269.53;5032974;28;20206;-77
2023/12/04 01:14:17;;;;;;;12.33;10.20;;;;;;;0.70;75.39;101264.47;5032258;28;20230;-77
2023/12/04 01:16:44;;;;;;;10.70;9.70;;;;;;;0.75;75.51;101261.25;5032980;28;20226;-77
2023/12/04 01:19:11;;;;;;;11.57;10.37;;;;;;;0.85;76.05;101252.13;5033491;28;20213;-77
2023/12/04 01:21:38;;;;;;;10.70;9.70;;;;;;;0.91;75.66;101247.22;5032307;28;20210;-77
2023/12/04 01:24:05;;;;;;;12.13;10.77;;;;;;;0.63;76.40;101240.25;5033244;28;20259;-76
2023/12/04 01:26:33;;;;;;;10.77;9.70;;;;;;;0.62;75.88;101230.81;5032909;28;20280;-77
2023/12/04 01:29:00;;;;;;;10.77;9.63;;;;;;;0.72;76.59;101216.59;5032879;28;20220;-77
2023/12/04 01:31:26;;;;;;;10.80;9.40;;;;;;;0.77;76.45;101208.22;5026285;28;20710;-77
2023/12/04 01:33:52;;;;;;;11.40;10.17;;;;;;;0.81;76.80;101204.03;5016630;28;20222;-77
2023/12/04 01:36:19;;;;;;;10.97;9.87;;;;;;;0.97;76.25;101201.16;5032087;28;20292;-77
2023/12/04 01:38:46;;;;;;;10.73;9.63;;;;;;;1.04;76.20;101193.63;5033381;28;20206;-77
2023/12/04 01:41:12;;;;;;;13.13;10.53;;;;;;;0.87;76.60;101196.50;5032789;28;20672;-76
2023/12/04 01:43:40;;;;;;;11.03;9.93;;;;;;;0.81;76.51;101195.44;5024093;28;20206;-77
2023/12/04 01:46:07;;;;;;;11.00;9.90;;;;;;;0.86;76.88;101189.66;5032711;28;20859;-77
2023/12/04 01:48:37;;;;;;;9.53;8.53;;;;;;;0.84;77.30;101169.88;5034011;28;20229;-77
2023/12/04 01:51:07;;;;;;;11.17;10.07;;;;;;;0.78;77.74;101142.28;5023811;28;20237;-77
2023/12/04 01:53:37;;;;;;;11.00;9.87;;;;;;;0.84;78.88;101115.91;5032333;28;20663;-76
2023/12/04 01:56:04;;;;;;;10.13;9.00;;;;;;;0.28;80.85;101087.53;5032202;28;20230;-77
2023/12/04 01:58:32;;;;;;;11.87;10.60;;;;;;;0.55;80.81;101037.06;5032468;28;20233;-76
2023/12/04 02:01:00;;;;;;;10.97;9.87;;;;;;;0.74;81.41;101007.69;5024891;28;20207;-77
2023/12/04 02:03:26;;;;;;;11.03;9.87;;;;;;;0.87;80.65;100990.06;5033057;28;20292;-77
2023/12/04 02:05:53;;;;;;;10.10;8.60;;;;;;;0.94;81.06;100990.28;5015955;28;20272;-77
2023/12/04 02:08:19;;;;;;;11.53;9.43;;;;;;;0.96;79.87;100990.34;5032473;28;20206;-77
2023/12/04 02:10:46;;;;;;;10.87;9.77;;;;;;;1.03;79.67;100989.69;5032466;28;20283;-77
2023/12/04 02:13:12;;;;;;;10.60;9.50;;;;;;;1.07;79.95;100983.81;5032416;28;20218;-77
2023/12/04 02:15:39;;;;;;;10.27;9.20;;;;;;;0.86;80.33;100986.63;5031919;28;20775;-77
2023/12/04 02:18:11;;;;;;;11.07;9.97;;;;;;;0.91;80.59;100976.47;5032449;28;20207;-77
2023/12/04 02:20:43;;;;;;;11.07;8.43;;;;;;;1.01;80.13;100978.47;5032654;28;20203;-77
2023/12/04 02:23:09;;;;;;;11.37;10.10;;;;;;;1.07;80.28;100973.53;5031742;28;20212;-77
2023/12/04 02:25:37;;;;;;;10.73;9.63;;;;;;;1.13;79.98;100981.41;5034948;28;20256;-77
2023/12/04 02:28:07;;;;;;;10.80;9.70;;;;;;;1.18;79.46;100973.81;5035090;28;20208;-77
2023/12/04 02:30:37;;;;;;;10.10;9.10;;;;;;;1.24;79.32;100967.97;5027328;28;20216;-77
2023/12/04 02:33:06;;;;;;;11.57;10.33;;;;;;;1.04;79.84;100982.84;5026726;28;20212;-77
2023/12/04 02:35:35;;;;;;;10.77;9.67;;;;;;;1.17;79.89;100972.09;5034098;28;20235;-76
2023/12/04 02:38:02;;;;;;;10.30;8.73;;;;;;;1.23;78.60;100987.69;5034389;28;20295;-77
2023/12/04 02:40:29;;;;;;;10.43;9.33;;;;;;;1.21;79.02;100998.72;5034870;28;20202;-77
2023/12/04 02:42:58;;;;;;;10.43;9.33;;;;;;;1.25;78.14;100998.00;5034545;28;20210;-76
2023/12/04 02:45:26;;;;;;;10.50;9.50;;;;;;;1.32;78.17;101007.63;5034480;28;20302;-76
2023/12/04 02:47:52;;;;;;;11.20;9.97;;;;;;;1.33;77.86;101002.53;5034826;28;20206;-77
2023/12/04 02:50:19;;;;;;;10.70;9.67;;;;;;;1.32;78.17;101008.50;5034617;28;20206;-77
2023/12/04 02:52:45;;;;;;;12.43;10.43;;;;;;;1.31;77.76;101011.91;5026125;28;20212;-77
2023/12/04 02:55:12;;;;;;;11.27;10.03;;;;;;;1.31;77.36;101018.72;5034689;28;20231;-77
2023/12/04 02:57:39;;;;;;;10.67;9.57;;;;;;;1.23;77.27;101028.81;5025852;28;20313;-76
2023/12/04 03:00:09;;;;;;;12.00;10.80;;;;;;;1.19;76.98;101032.13;5030480;28;20646;-77
2023/12/04 03:02:36;;;;;;;10.10;9.03;;;;;;;0.97;76.78;101043.47;5031109;28;20252;-76
2023/12/04 03:05:03;;;;;;;10.47;9.37;;;;;;;1.19;77.28;101032.13;5034682;28;20568;-77
2023/12/04 03:07:29;;;;;;;11.57;9.80;;;;;;;1.22;76.75;101031.34;5034145;28;20715;-77
2023/12/04 03:09:57;;;;;;;10.17;9.07;;;;;;;1.27;77.23;101022.94;5034345;28;20200;-77
2023/12/04 03:12:23;;;;;;;10.50;9.40;;;;;;;1.28;77.27;101021.22;5033719;28;20215;-77
2023/12/04 03:14:50;;;;;;;10.53;9.43;;;;;;;1.30;77.34;101023.00;5033920;28;20230;-77
2023/12/04 03:17:18;;;;;;;11.47;9.67;;;;;;;1.32;76.94;101036.78;5034058;28;20225;-77
2023/12/04 03:19:44;;;;;;;10.13;9.13;;;;;;;1.35;75.88;101047.16;5032526;28;20205;-77
2023/12/04 03:22:11;;;;;;;10.10;9.10;;;;;;;1.27;75.46;101066.66;5027374;28;20202;-77
2023/12/04 03:24:37;;;;;;;10.33;9.23;;;;;;;1.35;76.08;101078.03;5034268;28;20203;-77
2023/12/04 03:27:04;;;;;;;10.63;9.60;;;;;;;1.35;74.84;101072.88;5033843;28;20241;-77
2023/12/04 03:29:31;;;;;;;10.13;9.07;;;;;;;1.49;75.46;101078.44;5033904;28;20206;-77
2023/12/04 03:32:00;;;;;;;11.10;10.00;;;;;;;1.53;75.13;101081.97;5014468;28;20212;-77
2023/12/04 03:34:30;;;;;;;10.97;8.67;;;;;;;1.57;75.13;101074.38;5029636;28;20233;-77
2023/12/04 03:36:56;;;;;;;10.67;8.50;;;;;;;1.60;75.67;101078.72;5023943;28;20227;-77
2023/12/04 03:39:22;;;;;;;10.00;8.93;;;;;;;1.62;75.11;101079.63;5033880;28;20621;-77
2023/12/04 03:41:49;;;;;;;9.57;8.57;;;;;;;1.64;75.02;101080.53;5033241;28;20287;-77
2023/12/04 03:44:15;;;;;;;10.97;8.43;;;;;;;1.48;74.41;101086.97;5033827;28;20252;-77
2023/12/04 03:46:42;;;;;;;10.13;9.13;;;;;;;1.56;75.01;101076.88;5033422;28;20230;-77
2023/12/04 03:49:08;;;;;;;8.67;7.87;;;;;;;1.58;75.86;101065.81;5033518;28;20211;-77
2023/12/04 03:51:37;;;;;;;9.50;8.50;;;;;;;1.58;75.20;101060.66;5033400;28;20210;-77
2023/12/04 03:54:03;;;;;;;9.53;8.57;;;;;;;1.59;74.89;101064.13;5033454;28;20206;-77
2023/12/04 03:56:30;;;;;;;10.00;9.00;;;;;;;1.58;75.19;101058.09;5033366;28;20234;-77
2023/12/04 03:58:56;;;;;;;9.60;8.70;;;;;;;1.53;74.74;101062.25;5033067;28;20206;-77
2023/12/04 04:01:24;;;;;;;9.43;8.53;;;;;;;1.53;74.77;101069.09;5025118;28;20236;-76
2023/12/04 04:03:51;;;;;;;9.80;8.80;;;;;;;1.50;73.41;101084.44;5025258;28;20625;-77
2023/12/04 04:06:17;;;;;;;8.73;7.83;;;;;;;1.57;73.00;101091.50;5032500;28;20659;-77
2023/12/04 04:08:52;;;;;;;8.40;7.60;;;;;;;1.63;73.53;101096.84;5033340;28;20665;-77
2023/12/04 04:11:18;;;;;;;9.20;8.30;;;;;;;1.64;73.80;101098.56;5024855;28;20207;-78
2023/12/04 04:13:45;;;;;;;10.93;7.63;;;;;;;1.71;73.70;101089.31;5032997;28;20548;-77
2023/12/04 04:16:15;;;;;;;9.40;8.40;;;;;;;1.68;73.78;101086.66;5032851;28;20230;-77
2023/12/04 04:18:42;;;;;;;8.27;7.47;;;;;;;1.71;72.93;101079.03;5033078;28;20216;-79
2023/12/04 04:21:09;;;;;;;8.37;7.57;;;;;;;1.76;73.40;101083.47;5032761;28;20209;-77
2023/12/04 04:23:35;;;;;;;9.53;8.53;;;;;;;1.73;73.98;101078.22;5032680;28;20681;-77
2023/12/04 04:26:04;;;;;;;9.00;8.13;;;;;;;1.74;74.35;101064.53;5030944;28;20648;-77
2023/12/04 04:28:30;;;;;;;8.37;7.53;;;;;;;1.65;73.52;101081.44;5028876;28;20229;-77
2023/12/04 04:30:57;;;;;;;8.33;7.43;;;;;;;1.68;73.90;101082.38;5032415;28;20206;-77
2023/12/04 04:33:23;;;;;;;9.50;8.50;;;;;;;1.62;74.98;101066.75;5032844;28;20218;-77
2023/12/04 04:35:49;;;;;;;8.90;8.00;;;;;;;1.67;74.59;101047.19;5030306;28;20623;-77
2023/12/04 04:38:16;;;;;;;8.50;7.57;;;;;;;1.72;74.94;101026.72;5026530;28;20200;-77
2023/12/04 04:40:44;;;;;;;9.00;8.10;;;;;;;1.74;75.63;101023.34;5032221;28;20213;-78
2023/12/04 04:43:12;;;;;;;9.40;8.50;;;;;;;1.74;74.58;101018.19;5032171;28;20210;-77
2023/12/04 04:45:38;;;;;;;8.50;7.70;;;;;;;1.76;74.99;101016.56;5032386;28;20202;-77
2023/12/04 04:48:11;;;;;;;8.17;7.37;;;;;;;1.75;74.57;101013.94;5032575;28;20221;-77
2023/12/04 04:50:37;;;;;;;9.57;8.50;;;;;;;1.74;73.33;101025.06;5032341;28;20206;-77
2023/12/04 04:53:04;;;;;;;8.70;7.90;;;;;;;1.74;72.66;101037.91;5032035;28;20823;-77
2023/12/04 04:55:31;;;;;;;8.03;7.23;;;;;;;1.73;72.30;101047.34;5031997;28;20294;-77
2023/12/04 04:57:58;;;;;;;8.73;7.73;;;;;;;1.73;72.24;101055.06;5026306;28;20237;-77
2023/12/04 05:00:27;;;;;;;10.63;9.07;;;;;;;1.78;72.56;101057.75;5031948;28;20312;-77
2023/12/04 05:02:53;;;;;;;9.47;8.53;;;;;;;1.76;72.10;101075.75;5032117;28;20206;-77
2023/12/04 05:05:20;;;;;;;8.30;7.50;;;;;;;1.78;71.73;101089.53;5032058;28;20646;-77
2023/12/04 05:07:47;;;;;;;8.97;8.17;;;;;;;1.75;72.14;101079.16;5031668;28;20273;-77
2023/12/04 05:10:13;;;;;;;10.07;9.13;;;;;;;1.81;71.53;101082.72;5032359;28;20346;-77
2023/12/04 05:12:43;;;;;;;8.70;7.43;;;;;;;1.71;71.20;101097.91;5031279;28;20283;-77
2023/12/04 05:15:10;;;;;;;9.80;8.73;;;;;;;1.76;70.86;101104.06;5024858;28;20226;-77
2023/12/04 05:17:38;;;;;;;9.40;8.50;;;;;;;1.81;71.78;101093.88;5031860;28;20249;-77
2023/12/04 05:20:13;;;;;;;9.50;8.63;;;;;;;1.85;72.59;101085.41;5031745;28;20605;-77
2023/12/04 05:22:42;;;;;;;9.67;8.73;;;;;;;1.85;72.92;101066.53;5031594;28;20204;-77
2023/12/04 05:25:09;;;;;;;8.37;7.57;;;;;;;1.82;72.81;101071.59;5032084;28;20701;-77
2023/12/04 05:27:35;;;;;;;9.23;8.33;;;;;;;1.71;71.10;101079.91;5025989;28;20238;-77
2023/12/04 05:30:02;;;;;;;8.73;7.83;;;;;;;1.68;71.34;101099.53;5015814;28;20217;-77
2023/12/04 05:32:29;;;;;;;10.07;8.97;;;;;;;1.75;72.80;101086.88;5031343;28;20245;-77
2023/12/04 05:34:57;;;;;;;9.17;8.27;;;;;;;1.83;73.30;101071.63;5031589;28;20704;-77
2023/12/04 05:37:23;;;;;;;8.90;8.10;;;;;;;1.78;73.02;101065.47;5044063;23;20304;-77
2023/12/04 05:39:49;;;;;;;8.77;7.97;;;;;;;1.61;69.77;101084.75;4996943;28;20211;-81
2023/12/04 05:42:16;;;;;;;8.50;7.70;;;;;;;1.75;70.87;101104.88;4998842;28;20208;-81
2023/12/04 05:44:42;;;;;;;7.97;7.17;;;;;;;1.79;70.08;101101.56;4998231;28;20211;-81
2023/12/04 05:47:08;;;;;;;9.37;8.57;;;;;;;1.85;70.29;101112.88;4998088;28;20226;-81
2023/12/04 05:49:36;;;;;;;9.00;8.10;;;;;;;1.88;72.88;101095.78;4999310;28;20203;-80
2023/12/04 05:52:04;;;;;;;9.57;8.67;;;;;;;1.89;72.87;101073.50;4998662;28;20212;-80
2023/12/04 05:54:30;;;;;;;10.03;9.03;;;;;;;1.88;72.97;101061.44;4999545;28;20207;-80
2023/12/04 05:56:56;;;;;;;9.23;8.33;;;;;;;1.94;71.67;101059.94;4998519;28;20223;-80
2023/12/04 05:59:23;;;;;;;8.77;7.90;;;;;;;1.96;70.78;101071.13;4998676;28;20294;-81
2023/12/04 06:01:49;;;;;;;8.67;7.87;;;;;;;1.91;70.84;101085.56;4997702;28;20207;-80
2023/12/04 06:04:15;;;;;;;9.30;8.40;;;;;;;1.91;70.89;101095.88;4999220;28;20205;-80
2023/12/04 06:06:41;;;;;;;8.57;7.67;;;;;;;1.94;72.24;101083.09;4998129;28;20196;-80
2023/12/04 06:09:09;;;;;;;9.67;8.77;;;;;;;1.96;72.33;101070.25;5000095;28;20281;-80
2023/12/04 06:11:35;;;;;;;10.20;9.20;;;;;;;1.96;71.83;101070.25;4997389;28;20211;-81
2023/12/04 06:14:01;;;;;;;9.23;8.33;;;;;;;1.57;72.05;101071.78;4996663;28;20257;-80
2023/12/04 06:16:27;;;;;;;9.23;8.43;;;;;;;1.69;73.63;101045.53;4997749;28;20228;-81
2023/12/04 06:18:53;;;;;;;9.10;8.20;;;;;;;1.70;73.22;101023.22;4998536;28;20273;-80
2023/12/04 06:21:20;;;;;;;9.73;8.70;;;;;;;1.76;73.96;101021.72;4998835;28;20270;-80
2023/12/04 06:23:46;;;;;;;9.60;8.70;;;;;;;1.53;72.86;101017.66;4998299;28;20208;-80
2023/12/04 06:26:15;;;;;;;9.77;8.87;;;;;;;1.64;73.37;101005.06;4998348;28;20203;-80
2023/12/04 06:28:41;;;;;;;8.93;8.03;;;;;;;1.69;75.04;100985.47;4997196;28;20231;-79
2023/12/04 06:31:09;;;;;;;7.63;6.93;;;;;;;1.50;76.14;100960.97;4997317;28;20204;-80
2023/12/04 06:33:37;;;;;;;9.53;8.63;;;;;;;1.55;75.17;100947.38;4990445;28;20630;-80
2023/12/04 06:36:05;;;;;;;8.40;7.60;;;;;;;1.59;73.78;100956.06;4992131;28;20279;-83
2023/12/04 06:38:34;;;;;;;9.27;8.37;;;;;;;1.66;74.28;100964.81;4993769;28;20299;-80
2023/12/04 06:41:01;;;;;;;10.60;9.60;;;;;;;1.66;72.94;100972.53;4994457;28;20219;-82
2023/12/04 06:43:30;;;;;;;10.23;9.33;;;;;;;1.74;72.54;100979.59;4995148;28;20203;-82
2023/12/04 06:45:58;;;;;;;9.70;8.50;;;;;;;1.79;71.37;100993.47;4993208;28;20252;-81
2023/12/04 06:48:26;;;;;;;10.10;9.10;;;;;;;1.86;69.89;101021.94;4986303;28;20225;-80
2023/12/04 06:50:52;;;;;;;8.57;7.67;;;;;;;1.76;69.29;101049.13;4989073;28;20254;-81
2023/12/04 06:53:18;;;;;;;9.77;8.47;;;;;;;1.65;66.74;101092.59;4987935;28;20230;-81
2023/12/04 06:55:45;;;;;;;9.03;8.23;;;;;;;1.84;67.90;101127.41;4995910;28;20230;-81
2023/12/04 06:58:11;;;;;;;9.67;8.77;;;;;;;1.85;68.08;101141.19;4995130;28;20228;-80
2023/12/04 07:00:39;;;;;;;9.17;8.27;;;;;;;1.41;65.48;101167.38;4995101;28;20199;-81
2023/12/04 07:03:05;;;;;;;9.83;8.93;;;;;;;1.61;68.19;101183.41;4994835;28;20212;-81
2023/12/04 07:05:31;;;;;;;9.60;8.60;;;;;;;1.64;68.52;101169.75;4995335;28;20259;-80
2023/12/04 07:07:57;;;;;;;9.70;8.70;;;;;;;1.69;67.96;101175.91;4994495;28;20274;-82
2023/12/04 07:10:24;;;;;;;9.00;8.20;;;;;;;1.65;67.46;101185.22;4996456;28;20732;-82
2023/12/04 07:12:50;;;;;;;9.73;8.73;;;;;;;1.74;68.71;101180.34;4997106;28;20235;-81
2023/12/04 07:15:19;;;;;;;9.10;8.30;;;;;;;1.72;68.44;101175.97;4999048;28;20212;-80
2023/12/04 07:17:47;;;;;;;8.77;7.97;;;;;;;1.58;65.40;101203.88;4998441;28;20269;-80
2023/12/04 07:20:13;;;;;;;9.43;7.90;;;;;;;1.50;65.95;101231.94;4991922;28;20213;-81
2023/12/04 07:22:39;;;;;;;8.63;7.83;;;;;;;1.67;66.88;101227.31;4997234;28;20258;-82
2023/12/04 07:25:07;;;;;;;9.27;8.47;;;;;;;1.61;66.69;101240.00;4999394;28;20229;-81
2023/12/04 07:27:34;;;;;;;9.00;8.17;;;;;;;1.75;66.26;101236.16;4999233;28;20229;-79
2023/12/04 07:30:00;;;;;;;8.80;7.93;;;;;;;1.72;65.71;101248.03;4998642;28;20578;-81
2023/12/04 07:32:26;;;;;;;9.43;8.53;;;;;;;1.71;65.96;101239.44;4998059;28;20203;-83
2023/12/04 07:34:54;;;;;;;9.43;8.43;;;;;;;1.48;65.79;101281.63;4997295;28;20728;-82
2023/12/04 07:37:20;;;;;;;8.57;7.67;;;;;;;1.70;66.76;101268.56;4997480;28;20286;-81
2023/12/04 07:39:46;;;;;;;9.50;8.60;;;;;;;1.52;65.91;101257.72;4992324;28;20291;-80
2023/12/04 07:42:13;;;;;;;8.20;7.43;;;;;;;1.54;66.01;101262.09;4997710;28;20776;-83
2023/12/04 07:44:39;;;;;;;10.33;8.83;;;;;;;1.71;67.52;101254.91;4998114;28;20274;-82
2023/12/04 07:47:06;;;;;;;9.60;8.63;;;;;;;1.69;66.64;101261.69;4997533;28;20227;-82
2023/12/04 07:49:32;;;;;;;10.93;8.30;;;;;;;1.76;67.24;101239.59;4998321;28;20232;-81
2023/12/04 07:51:59;;;;;;;8.87;8.07;;;;;;;1.67;65.66;101234.19;4997706;28;20215;-80
2023/12/04 07:54:27;;;;;;;8.87;8.00;;;;;;;1.76;66.06;101231.84;4998256;28;20667;-81
2023/12/04 07:56:53;;;;;;;8.60;7.80;;;;;;;1.74;67.02;101231.81;4996689;28;20231;-81
2023/12/04 07:59:19;;;;;;;9.00;8.10;;;;;;;1.62;67.71;101218.56;4991424;28;20234;-82
2023/12/04 08:01:46;;;;;;;8.43;7.70;;;;;;;1.65;68.38;101204.97;4996432;28;20560;-80
2023/12/04 08:04:13;;;;;;;8.70;7.80;;;;;;;1.49;67.53;101204.50;4997703;28;20195;-81
2023/12/04 08:06:39;;;;;;;8.83;8.03;;;;;;;1.65;68.13;101189.50;4998314;28;20262;-83
2023/12/04 08:09:09;;;;;;;8.97;8.10;;;;;;;1.68;68.94;101174.16;4997791;28;20228;-84
2023/12/04 08:11:36;;;;;;;8.73;7.93;;;;;;;1.74;69.21;101164.03;4990049;28;20689;-82
2023/12/04 08:14:03;;;;;;;9.57;8.67;;;;;;;1.81;69.30;101147.06;4997882;28;20347;-82
2023/12/04 08:16:29;;;;;;;9.47;8.03;;;;;;;1.87;69.57;101134.38;4997459;28;20223;-82
2023/12/04 08:18:56;;;;;;;8.70;7.80;;;;;;;1.74;69.11;101130.56;4989547;28;20227;-81
2023/12/04 08:21:22;;;;;;;10.40;9.40;;;;;;;1.75;69.34;101133.19;4995410;28;20206;-79
2023/12/04 08:23:49;;;;;;;14.47;13.07;;;;;;;1.75;69.15;101138.34;4996743;28;20291;-80
2023/12/04 08:26:24;;;;;;;9.40;8.50;;;;;;;1.83;68.87;101141.13;4997591;28;20653;-82
2023/12/04 08:28:50;;;;;;;9.27;8.37;;;;;;;1.89;69.07;101125.84;4997014;28;20342;-83
2023/12/04 08:31:17;;;;;;;11.63;10.60;;;;;;;1.83;67.26;101154.00;4996639;28;20209;-82
2023/12/04 08:33:43;;;;;;;11.13;10.13;;;;;;;1.93;68.05;101142.25;4997047;28;20210;-81
2023/12/04 08:36:11;;;;;;;9.53;8.63;;;;;;;1.99;68.57;101133.00;4996492;28;20224;-80
2023/12/04 08:38:37;;;;;;;9.83;8.93;;;;;;;2.05;68.95;101124.56;4996946;28;20301;-80
2023/12/04 08:41:04;;;;;;;13.17;12.00;;;;;;;2.11;69.08;101122.16;4995634;28;20241;-81
2023/12/04 08:43:32;;;;;;;15.77;14.37;;;;;;;2.13;68.40;101120.50;4996236;28;20207;-82
2023/12/04 08:45:58;;;;;;;11.07;10.07;;;;;;;2.13;68.82;101123.06;4995919;28;20203;-82
2023/12/04 08:48:24;;;;;;;9.07;8.17;;;;;;;2.19;67.86;101118.06;4996960;28;20258;-83
2023/12/04 08:50:51;;;;;;;8.90;8.10;;;;;;;2.21;66.93;101135.28;4995435;28;20265;-83
2023/12/04 08:53:17;;;;;;;9.23;8.33;;;;;;;2.22;66.63;101155.94;4995779;28;21009;-82
2023/12/04 08:55:44;;;;;;;10.37;9.40;;;;;;;2.19;66.93;101159.28;4996382;28;20203;-82
2023/12/04 08:58:11;;;;;;;9.43;8.53;;;;;;;2.11;67.57;101159.91;4989299;28;20753;-81
2023/12/04 09:00:42;;;;;;;10.17;9.27;;;;;;;2.17;68.50;101148.06;4996169;28;20243;-82
2023/12/04 09:03:08;;;;;;;10.33;9.43;;;;;;;2.28;67.66;101132.03;4996207;28;20234;-83
2023/12/04 09:05:35;;;;;;;8.57;7.77;;;;;;;2.27;67.30;101141.47;4996516;28;20230;-82
2023/12/04 09:08:01;;;;;;;9.13;8.33;;;;;;;2.32;66.88;101146.72;4996700;28;20223;-80
2023/12/04 09:10:27;;;;;;;9.17;8.37;;;;;;;2.27;67.00;101159.50;4996847;28;20211;-80
2023/12/04 09:12:54;;;;;;;9.47;8.57;;;;;;;2.33;67.03;101157.06;4996476;28;20270;-81
2023/12/04 09:15:20;;;;;;;10.10;9.20;;;;;;;2.23;66.79;101164.53;4997099;28;20248;-81
2023/12/04 09:17:48;;;;;;;8.93;8.07;;;;;;;2.27;67.46;101158.63;4997504;28;20282;-81
2023/12/04 09:20:15;;;;;;;9.47;8.60;;;;;;;2.30;67.50;101151.84;4997035;28;20267;-80
2023/12/04 09:22:41;;;;;;;9.17;8.27;;;;;;;2.37;67.23;101160.59;4996818;28;20195;-80
2023/12/04 09:25:08;;;;;;;9.83;8.93;;;;;;;2.38;66.87;101158.06;4996768;28;20203;-81
2023/12/04 09:27:35;;;;;;;15.20;14.00;;;;;;;2.43;66.08;101165.91;4996941;28;20220;-82
2023/12/04 09:30:01;;;;;;;8.90;8.13;;;;;;;2.49;64.97;101176.38;4997482;28;20276;-83
2023/12/04 09:32:28;;;;;;;9.20;8.40;;;;;;;2.43;65.17;101195.97;4995852;28;20201;-84
2023/12/04 09:34:55;;;;;;;8.50;7.70;;;;;;;2.38;65.55;101208.75;4995333;28;20213;-82
2023/12/04 09:37:22;;;;;;;9.80;8.90;;;;;;;2.44;66.02;101203.75;4996597;28;20290;-81
2023/12/04 09:39:49;;;;;;;9.07;8.27;;;;;;;2.54;66.57;101185.13;4997407;28;20667;-82
2023/12/04 09:42:18;;;;;;;9.67;8.77;;;;;;;2.59;66.76;101175.78;4996948;28;20267;-81
2023/12/04 09:44:44;;;;;;;8.87;8.07;;;;;;;2.66;66.00;101165.66;4997650;28;20224;-81
2023/12/04 09:47:11;;;;;;;11.17;9.90;;;;;;;2.65;65.59;101177.63;4996056;28;20199;-81
2023/12/04 09:49:38;;;;;;;9.23;8.43;;;;;;;2.66;65.85;101179.41;4997368;28;20663;-81
2023/12/04 09:52:07;;;;;;;10.00;9.00;;;;;;;2.64;65.95;101173.34;4995346;28;20207;-81
2023/12/04 09:54:36;;;;;;;9.17;8.27;;;;;;;2.53;65.32;101178.19;4997021;28;20205;-81
2023/12/04 09:57:03;;;;;;;8.10;7.30;;;;;;;2.53;65.65;101173.03;4996261;28;20290;-78
2023/12/04 09:59:31;;;;;;;9.30;8.50;;;;;;;2.55;65.45;101170.50;4996738;28;20642;-81
2023/12/04 10:01:58;;;;;;;9.20;8.30;;;;;;;2.43;65.62;101178.78;4995861;28;20200;-79
2023/12/04 10:04:24;;;;;;;8.73;7.93;;;;;;;2.44;65.74;101159.06;4997005;28;20203;-80
2023/12/04 10:06:52;;;;;;;8.17;7.37;;;;;;;2.53;66.06;101152.44;4996258;28;20234;-79
2023/12/04 10:09:22;;;;;;;8.43;7.70;;;;;;;2.54;65.21;101154.19;4996874;28;20219;-80
2023/12/04 10:11:50;;;;;;;10.07;9.17;;;;;;;2.50;65.30;101157.53;4995839;28;20299;-80
2023/12/04 10:14:19;;;;;;;8.83;8.03;;;;;;;2.53;65.39;101164.44;4997822;28;20255;-80
2023/12/04 10:16:46;;;;;;;8.10;7.40;;;;;;;2.57;66.23;101146.50;4996150;28;20957;-80
2023/12/04 10:19:17;;;;;;;8.27;7.57;;;;;;;2.66;65.35;101138.16;4996734;28;20576;-81
2023/12/04 10:21:44;;;;;;;8.40;7.22;;;;;;;2.68;65.53;101130.47;4306376;28;10021710;-78
2023/12/04 10:24:10;;;;;;;9.67;8.77;;;;;;;2.74;65.54;101128.03;4992205;28;20201;-81
2023/12/04 10:26:39;;;;;;;10.90;9.90;;;;;;;2.79;65.02;101134.16;4993069;28;20209;-79
2023/12/04 10:29:06;;;;;;;7.97;7.27;;;;;;;2.81;64.21;101135.06;4993516;28;20231;-81
2023/12/04 10:31:33;;;;;;;7.80;7.10;;;;;;;2.75;63.46;101156.41;4992767;28;20213;-81
2023/12/04 10:33:59;;;;;;;7.63;6.93;;;;;;;2.62;61.61;101193.03;4992465;28;20498;-80
2023/12/04 10:36:26;;;;;;;8.80;8.00;;;;;;;2.67;63.70;101188.00;4992460;28;20243;-81
2023/12/04 10:38:59;;;;;;;8.97;8.10;;;;;;;2.74;64.17;101167.56;4992362;28;20238;-80
2023/12/04 10:41:25;;;;;;;9.07;7.23;;;;;;;2.85;64.93;101152.34;4992371;28;20623;-81
2023/12/04 10:43:53;;;;;;;8.20;7.40;;;;;;;2.87;64.76;101139.50;4992799;28;20227;-80
2023/12/04 10:46:21;;;;;;;9.03;8.23;;;;;;;2.87;64.53;101148.09;4995277;28;20680;-80
2023/12/04 10:48:48;;;;;;;8.17;7.43;;;;;;;2.95;64.33;101141.44;4997015;28;20753;-81
2023/12/04 10:51:17;;;;;;;8.00;7.30;;;;;;;2.94;63.96;101137.09;4987761;28;20211;-80
2023/12/04 10:53:44;;;;;;;8.13;7.43;;;;;;;2.91;63.84;101149.06;4997080;28;20204;-81
2023/12/04 10:56:17;;;;;;;8.03;7.33;;;;;;;2.94;63.77;101155.16;4996901;28;20199;-81
2023/12/04 10:58:47;;;;;;;8.43;7.63;;;;;;;3.02;63.96;101149.31;4995764;28;20234;-82
2023/12/04 11:01:16;;;;;;;7.87;7.17;;;;;;;3.01;64.40;101139.81;4995067;28;20208;-79
2023/12/04 11:03:45;;;;;;;7.60;6.90;;;;;;;2.83;64.59;101138.56;4995056;28;20200;-80
2023/12/04 11:06:13;;;;;;;7.60;7.00;;;;;;;2.70;63.92;101142.56;4995182;28;20584;-78
2023/12/04 11:08:42;;;;;;;7.27;6.67;;;;;;;2.63;62.85;101144.94;4993988;28;20224;-78
2023/12/04 11:11:13;;;;;;;8.27;7.53;;;;;;;2.35;62.86;101149.38;4993660;28;20667;-78
2023/12/04 11:13:42;;;;;;;7.97;7.27;;;;;;;2.44;64.44;101139.34;4995299;28;20239;-79
2023/12/04 11:16:13;;;;;;;7.87;7.17;;;;;;;2.56;64.66;101121.59;4995069;28;20216;-79
2023/12/04 11:18:44;;;;;;;7.73;7.03;;;;;;;2.65;64.95;101113.19;4992269;28;20236;-77
2023/12/04 11:21:12;;;;;;;7.43;6.73;;;;;;;2.74;65.31;101103.13;4992253;28;20221;-77
2023/12/04 11:23:39;;;;;;;6.93;6.30;;;;;;;2.35;61.18;101141.66;4992318;28;20737;-77
2023/12/04 11:26:07;;;;;;;7.57;6.93;;;;;;;2.02;61.64;101165.66;4996525;28;20678;-80
2023/12/04 11:28:36;;;;;;;7.77;7.07;;;;;;;2.31;63.92;101150.16;4996493;28;20230;-81